Time;durP1;ratioP1;P1;durP2;ratioP2;P2;SDS_P1;SDS_P2;PMS_P1;PMS_P2;Temp;Humidity;BMP_temperature;BMP_pressure;BME280_temperature;BME280_humidity;BME280_pressure;Samples;Min_cycle;Max_cycle;Signal;HPM_P1;HPM_P2
2021/10/12 00:01:18;;;;;;;16.00;4.40;;;7.00;99.90;;;;;;5023295;28;20548;-83
2021/10/12 00:03:43;;;;;;;15.77;4.80;;;7.00;99.90;;;;;;5043220;28;20393;-84
2021/10/12 00:06:09;;;;;;;17.65;4.95;;;7.00;99.90;;;;;;5012387;28;20397;-83
2021/10/12 00:08:35;;;;;;;17.13;5.20;;;7.00;99.90;;;;;;5035228;28;20878;-84
2021/10/12 00:11:01;;;;;;;16.58;4.95;;;7.00;99.90;;;;;;5031439;28;20457;-84
2021/10/12 00:13:27;;;;;;;18.83;5.50;;;7.10;99.90;;;;;;5012618;28;20410;-84
2021/10/12 00:15:53;;;;;;;12.85;4.65;;;7.10;99.90;;;;;;5024266;28;20373;-84
2021/10/12 00:18:19;;;;;;;11.57;4.78;;;7.10;99.90;;;;;;5012807;28;20377;-83
2021/10/12 00:20:52;;;;;;;13.35;4.80;;;7.10;99.90;;;;;;5027347;28;20437;-85
2021/10/12 00:23:18;;;;;;;15.82;4.88;;;7.10;99.90;;;;;;5053846;28;20378;-83
2021/10/12 00:25:44;;;;;;;17.70;5.15;;;7.10;99.90;;;;;;5036231;28;20374;-83
2021/10/12 00:28:10;;;;;;;18.77;5.47;;;7.10;99.90;;;;;;5022109;28;20396;-83
2021/10/12 00:30:35;;;;;;;18.10;5.13;;;7.10;99.90;;;;;;5032561;28;20429;-83
2021/10/12 00:33:02;;;;;;;12.48;5.10;;;7.00;99.90;;;;;;5016465;28;20403;-83
2021/10/12 00:35:28;;;;;;;18.80;5.65;;;7.10;99.90;;;;;;5033457;28;20377;-84
2021/10/12 00:37:54;;;;;;;17.13;5.43;;;7.00;99.90;;;;;;5030821;28;20390;-83
2021/10/12 00:40:19;;;;;;;19.75;5.38;;;7.00;99.90;;;;;;5024143;28;20872;-83
2021/10/12 00:42:45;;;;;;;16.02;5.40;;;7.00;99.90;;;;;;5022724;28;20727;-83
2021/10/12 00:45:12;;;;;;;19.30;5.57;;;7.00;99.90;;;;;;5005549;28;20379;-85
2021/10/12 00:47:38;;;;;;;18.17;5.32;;;7.10;99.90;;;;;;5005812;28;20413;-84
2021/10/12 00:50:06;;;;;;;13.23;5.40;;;7.10;99.90;;;;;;5024491;28;20524;-84
2021/10/12 00:52:35;;;;;;;15.53;5.03;;;7.20;99.90;;;;;;5016290;28;20411;-84
2021/10/12 00:55:00;;;;;;;14.85;4.90;;;7.20;99.90;;;;;;5014277;28;20367;-84
2021/10/12 00:57:26;;;;;;;14.27;5.33;;;7.30;99.90;;;;;;5031659;28;20929;-83
2021/10/12 00:59:53;;;;;;;15.32;4.85;;;7.20;99.90;;;;;;5005967;28;20397;-83
2021/10/12 01:02:19;;;;;;;17.48;5.05;;;7.10;99.90;;;;;;5001209;28;20476;-84
2021/10/12 01:04:45;;;;;;;13.07;4.65;;;7.10;99.90;;;;;;5027271;28;20895;-84
2021/10/12 01:07:10;;;;;;;16.20;4.60;;;7.10;99.90;;;;;;5005284;28;20385;-84
2021/10/12 01:09:38;;;;;;;15.93;5.07;;;7.00;99.90;;;;;;5013375;28;20408;-83
2021/10/12 01:12:04;;;;;;;19.63;4.87;;;7.00;99.90;;;;;;5005987;28;20410;-84
2021/10/12 01:14:30;;;;;;;11.23;4.00;;;7.00;99.90;;;;;;5005948;28;20834;-84
2021/10/12 01:16:55;;;;;;;13.67;4.67;;;7.00;99.90;;;;;;5005683;28;20879;-84
2021/10/12 01:19:21;;;;;;;16.05;4.50;;;6.90;99.90;;;;;;5003726;28;20409;-84
2021/10/12 01:21:48;;;;;;;14.95;4.75;;;6.90;99.90;;;;;;5024369;28;20405;-84
2021/10/12 01:24:16;;;;;;;14.43;4.90;;;6.90;99.90;;;;;;5027385;28;20465;-84
2021/10/12 01:26:43;;;;;;;14.85;4.82;;;6.90;99.90;;;;;;5005152;28;20376;-84
2021/10/12 01:29:10;;;;;;;16.20;4.70;;;6.90;99.90;;;;;;5010660;28;20764;-84
2021/10/12 01:31:37;;;;;;;12.23;5.15;;;6.90;99.90;;;;;;5008283;28;20410;-84
2021/10/12 01:34:11;;;;;;;15.93;5.13;;;6.80;99.90;;;;;;5042560;28;20419;-84
2021/10/12 01:36:36;;;;;;;11.10;4.40;;;6.80;99.90;;;;;;5027733;28;20455;-83
2021/10/12 01:39:02;;;;;;;13.30;5.03;;;6.70;99.90;;;;;;5016360;28;20379;-84
2021/10/12 01:41:30;;;;;;;11.27;4.32;;;6.80;99.90;;;;;;5013170;28;20375;-84
2021/10/12 01:43:57;;;;;;;15.20;4.93;;;6.70;99.90;;;;;;5026413;28;20477;-84
2021/10/12 01:46:23;;;;;;;13.70;4.68;;;6.70;99.90;;;;;;5034910;28;20708;-83
2021/10/12 01:48:49;;;;;;;14.20;4.80;;;6.60;99.90;;;;;;5016763;28;20378;-84
2021/10/12 01:51:14;;;;;;;16.52;4.97;;;6.60;99.90;;;;;;5049592;28;20373;-84
2021/10/12 01:53:40;;;;;;;12.50;4.70;;;6.60;99.90;;;;;;5017677;28;20373;-84
2021/10/12 01:56:06;;;;;;;15.17;4.87;;;6.60;99.90;;;;;;5036504;28;20387;-84
2021/10/12 01:58:32;;;;;;;16.98;5.25;;;6.50;99.90;;;;;;5035725;28;20451;-84
2021/10/12 02:00:58;;;;;;;12.60;4.73;;;6.60;99.90;;;;;;5036110;28;20890;-84
2021/10/12 02:03:24;;;;;;;12.65;4.47;;;6.60;99.90;;;;;;5035485;28;20381;-84
2021/10/12 02:05:49;;;;;;;11.77;4.07;;;6.60;99.90;;;;;;5036440;28;20463;-84
2021/10/12 02:08:15;;;;;;;12.53;4.57;;;6.60;99.90;;;;;;5027379;28;20385;-84
2021/10/12 02:10:41;;;;;;;13.73;4.53;;;6.50;99.90;;;;;;5015373;28;20402;-84
2021/10/12 02:13:07;;;;;;;14.75;4.80;;;6.50;99.90;;;;;;5032807;28;20420;-86
2021/10/12 02:15:32;;;;;;;10.73;4.13;;;6.50;99.90;;;;;;5033413;28;20401;-84
2021/10/12 02:17:58;;;;;;;17.10;4.68;;;6.40;99.90;;;;;;5017154;28;20864;-84
2021/10/12 02:20:24;;;;;;;14.60;5.18;;;6.30;99.90;;;;;;5016859;28;20879;-84
2021/10/12 02:22:50;;;;;;;17.90;5.53;;;6.30;99.90;;;;;;5026394;28;20436;-84
2021/10/12 02:25:15;;;;;;;19.20;5.87;;;6.50;99.90;;;;;;5015470;28;20378;-85
2021/10/12 02:27:41;;;;;;;15.50;5.50;;;6.60;99.90;;;;;;5033688;28;20911;-85
2021/10/12 02:30:08;;;;;;;15.20;5.30;;;6.70;99.90;;;;;;5016041;28;20389;-85
2021/10/12 02:32:34;;;;;;;18.00;5.82;;;6.70;99.90;;;;;;5016730;28;20420;-84
2021/10/12 02:35:00;;;;;;;12.93;5.40;;;6.80;99.90;;;;;;5016303;28;20709;-84
2021/10/12 02:37:25;;;;;;;16.30;5.77;;;6.90;99.90;;;;;;5016135;28;20488;-84
2021/10/12 02:39:52;;;;;;;18.50;6.32;;;6.90;99.90;;;;;;5015625;28;20421;-84
2021/10/12 02:42:17;;;;;;;18.83;6.13;;;6.90;99.90;;;;;;5033408;28;20459;-85
2021/10/12 02:44:43;;;;;;;19.07;6.20;;;6.90;99.90;;;;;;5043614;28;20419;-84
2021/10/12 02:47:09;;;;;;;18.58;6.18;;;7.00;99.90;;;;;;5053473;28;20435;-85
2021/10/12 02:49:35;;;;;;;15.68;6.47;;;7.00;99.90;;;;;;5025938;28;20401;-84
2021/10/12 02:52:01;;;;;;;13.90;6.03;;;7.10;99.90;;;;;;5032818;28;20867;-84
2021/10/12 02:54:26;;;;;;;20.77;6.80;;;7.20;99.90;;;;;;5032534;28;20365;-85
2021/10/12 02:56:52;;;;;;;19.15;6.55;;;7.20;99.90;;;;;;5015111;28;20393;-85
2021/10/12 02:59:18;;;;;;;17.07;7.10;;;7.30;99.90;;;;;;5014295;28;20441;-86
2021/10/12 03:01:49;;;;;;;18.92;6.43;;;7.30;99.90;;;;;;5029544;28;20384;-85
2021/10/12 03:04:15;;;;;;;21.27;6.85;;;7.20;99.90;;;;;;5034786;28;20372;-85
2021/10/12 03:06:41;;;;;;;21.63;6.93;;;7.30;99.90;;;;;;5035696;28;20980;-86
2021/10/12 03:09:07;;;;;;;17.95;6.70;;;7.30;99.90;;;;;;5042672;28;20411;-84
2021/10/12 03:11:32;;;;;;;17.50;6.85;;;7.30;99.90;;;;;;5013319;28;20385;-85
2021/10/12 03:13:58;;;;;;;17.30;6.07;;;7.40;99.90;;;;;;5013583;28;20378;-85
2021/10/12 03:16:24;;;;;;;20.00;6.30;;;7.40;99.90;;;;;;5027721;28;20380;-85
2021/10/12 03:18:50;;;;;;;13.38;5.90;;;7.50;99.90;;;;;;5032647;28;20379;-84
2021/10/12 03:21:16;;;;;;;17.02;5.72;;;7.40;99.90;;;;;;5032714;28;20386;-85
2021/10/12 03:23:43;;;;;;;16.48;5.80;;;7.40;99.90;;;;;;5017600;28;20377;-85
2021/10/12 03:26:08;;;;;;;17.05;5.85;;;7.40;99.90;;;;;;5031533;28;20377;-84
2021/10/12 03:28:34;;;;;;;12.75;5.65;;;7.40;99.90;;;;;;5034928;28;20371;-85
2021/10/12 03:31:00;;;;;;;19.15;6.10;;;7.50;99.90;;;;;;5030921;28;20851;-84
2021/10/12 03:33:25;;;;;;;16.83;5.40;;;7.50;99.90;;;;;;5036194;28;20737;-84
2021/10/12 03:35:56;;;;;;;13.45;5.60;;;7.60;99.90;;;;;;5032143;28;20400;-85
2021/10/12 03:38:26;;;;;;;15.65;5.68;;;7.60;99.90;;;;;;5035062;28;20377;-85
2021/10/12 03:40:52;;;;;;;19.70;6.28;;;7.80;99.90;;;;;;5015287;28;20382;-85
2021/10/12 03:43:19;;;;;;;13.77;5.45;;;7.80;99.90;;;;;;5015255;28;20379;-85
2021/10/12 03:45:45;;;;;;;13.52;5.50;;;7.80;99.90;;;;;;5043817;28;20441;-85
2021/10/12 03:48:11;;;;;;;13.90;5.47;;;7.80;99.90;;;;;;5054225;28;20387;-85
2021/10/12 03:50:37;;;;;;;15.15;5.68;;;7.90;99.90;;;;;;5054137;28;20899;-85
2021/10/12 03:53:06;;;;;;;15.20;6.05;;;7.80;99.90;;;;;;5036742;28;20380;-85
2021/10/12 03:55:32;;;;;;;21.65;6.10;;;7.90;99.90;;;;;;5054397;28;20382;-84
2021/10/12 03:57:57;;;;;;;16.23;5.90;;;8.10;99.90;;;;;;5052472;28;20376;-86
2021/10/12 04:00:23;;;;;;;21.23;6.65;;;8.10;99.90;;;;;;5016068;28;20782;-83
2021/10/12 04:02:48;;;;;;;20.10;6.60;;;8.20;99.90;;;;;;5034103;28;20373;-84
2021/10/12 04:05:15;;;;;;;16.80;7.20;;;8.20;99.90;;;;;;5034086;28;20388;-83
2021/10/12 04:07:41;;;;;;;17.33;6.88;;;8.20;99.90;;;;;;5033865;28;20380;-82
2021/10/12 04:10:07;;;;;;;20.23;6.85;;;8.30;99.90;;;;;;5034283;28;20406;-83
2021/10/12 04:12:33;;;;;;;14.93;7.13;;;8.30;99.90;;;;;;5034518;28;20381;-83
2021/10/12 04:14:58;;;;;;;15.70;7.30;;;8.30;99.90;;;;;;5054283;28;20929;-83
2021/10/12 04:17:24;;;;;;;20.23;7.50;;;8.30;99.90;;;;;;5034988;28;20374;-85
2021/10/12 04:19:49;;;;;;;20.60;8.37;;;8.30;99.90;;;;;;5016114;28;20385;-83
2021/10/12 04:22:15;;;;;;;17.63;7.68;;;8.30;99.90;;;;;;5050184;28;20470;-82
2021/10/12 04:24:41;;;;;;;17.87;8.37;;;8.40;99.90;;;;;;5049565;28;20389;-84
2021/10/12 04:27:10;;;;;;;22.33;8.90;;;8.40;99.90;;;;;;5016536;28;20408;-83
2021/10/12 04:29:35;;;;;;;21.83;9.18;;;8.30;99.90;;;;;;5015780;28;20420;-85
2021/10/12 04:32:03;;;;;;;19.85;9.25;;;8.30;99.90;;;;;;5033549;28;20844;-84
2021/10/12 04:34:29;;;;;;;18.77;9.40;;;8.30;99.90;;;;;;5032691;28;20377;-84
2021/10/12 04:36:55;;;;;;;16.27;9.43;;;8.30;99.90;;;;;;5032985;28;20378;-83
2021/10/12 04:39:21;;;;;;;18.27;9.85;;;8.40;99.90;;;;;;5043304;28;20402;-85
2021/10/12 04:41:47;;;;;;;18.30;9.82;;;8.30;99.90;;;;;;5035038;28;20869;-84
2021/10/12 04:44:12;;;;;;;13.97;8.73;;;8.30;99.90;;;;;;5052372;28;20449;-84
2021/10/12 04:46:39;;;;;;;15.10;8.40;;;8.40;99.90;;;;;;5039191;28;20389;-85
2021/10/12 04:49:05;;;;;;;14.85;7.88;;;8.50;99.90;;;;;;5014440;28;20733;-85
2021/10/12 04:51:31;;;;;;;17.80;8.75;;;8.50;99.90;;;;;;5015139;28;20380;-85
2021/10/12 04:53:56;;;;;;;15.13;7.85;;;8.60;99.90;;;;;;5033957;28;20811;-86
2021/10/12 04:56:22;;;;;;;16.00;7.25;;;8.60;99.90;;;;;;5012434;28;20437;-85
2021/10/12 04:58:47;;;;;;;15.73;7.37;;;8.60;99.90;;;;;;5031073;28;20370;-84
2021/10/12 05:01:13;;;;;;;12.80;7.20;;;8.60;99.90;;;;;;5016501;28;20452;-87
2021/10/12 05:03:39;;;;;;;12.70;6.97;;;8.50;99.90;;;;;;5016028;28;20381;-86
2021/10/12 05:06:04;;;;;;;16.33;7.33;;;8.40;99.90;;;;;;5033701;28;20460;-85
2021/10/12 05:08:30;;;;;;;16.67;7.60;;;8.40;99.90;;;;;;5015497;28;20381;-85
2021/10/12 05:10:56;;;;;;;16.02;7.18;;;8.30;99.90;;;;;;5015743;28;20401;-85
2021/10/12 05:13:22;;;;;;;14.35;7.22;;;8.20;99.90;;;;;;5032809;28;20887;-85
2021/10/12 05:15:48;;;;;;;14.13;7.30;;;8.10;99.90;;;;;;5035013;28;20384;-85
2021/10/12 05:18:20;;;;;;;15.75;7.40;;;8.10;99.90;;;;;;5052425;28;20894;-84
2021/10/12 05:20:46;;;;;;;13.77;7.05;;;8.10;99.90;;;;;;5035580;28;20388;-83
2021/10/12 05:23:13;;;;;;;11.05;6.93;;;8.10;99.90;;;;;;5052801;28;20967;-84
2021/10/12 05:25:39;;;;;;;13.13;7.18;;;8.20;99.90;;;;;;5029545;28;20374;-85
2021/10/12 05:28:10;;;;;;;13.13;7.93;;;8.20;99.90;;;;;;5015297;28;20473;-87
2021/10/12 05:30:39;;;;;;;14.40;8.20;;;8.20;99.90;;;;;;5015383;28;20400;-83
2021/10/12 05:33:16;;;;;;;12.35;8.25;;;8.30;99.90;;;;;;5032975;28;20428;-85
2021/10/12 05:35:42;;;;;;;17.08;10.30;;;8.30;99.90;;;;;;5032553;28;20361;-85
2021/10/12 05:38:08;;;;;;;20.33;11.15;;;8.40;99.90;;;;;;5015184;28;20396;-86
2021/10/12 05:40:34;;;;;;;15.57;10.45;;;8.40;99.90;;;;;;5049525;28;20376;-85
2021/10/12 05:42:59;;;;;;;16.33;10.93;;;8.40;99.90;;;;;;5034109;28;20387;-85
2021/10/12 05:45:25;;;;;;;21.60;11.20;;;8.40;99.90;;;;;;5033093;28;20456;-85
2021/10/12 05:47:51;;;;;;;17.80;10.77;;;8.40;99.90;;;;;;5015056;28;20468;-85
2021/10/12 05:50:17;;;;;;;17.07;11.30;;;8.50;99.90;;;;;;5032565;28;20393;-84
2021/10/12 05:52:50;;;;;;;19.52;11.40;;;8.50;99.90;;;;;;5033471;28;20902;-85
2021/10/12 05:55:25;;;;;;;16.92;10.52;;;8.60;99.90;;;;;;5016439;28;20980;-84
2021/10/12 06:00:32;;;;;;;18.58;10.80;;;8.60;99.90;;;;;;5033025;28;20377;-84
2021/10/12 06:02:58;;;;;;;16.25;10.35;;;8.60;99.90;;;;;;5033112;28;20409;-85
2021/10/12 06:05:23;;;;;;;20.95;10.80;;;8.70;99.90;;;;;;5015216;28;20889;-85
2021/10/12 06:07:49;;;;;;;18.67;10.83;;;8.70;99.90;;;;;;5014680;28;20381;-85
2021/10/12 06:10:15;;;;;;;19.33;11.90;;;8.70;99.90;;;;;;5032314;28;20393;-85
2021/10/12 06:12:40;;;;;;;18.00;11.80;;;8.60;99.90;;;;;;5015331;28;20890;-83
2021/10/12 06:15:06;;;;;;;16.37;11.23;;;8.50;99.90;;;;;;5032247;28;20739;-84
2021/10/12 06:17:31;;;;;;;17.73;11.13;;;8.60;99.90;;;;;;5032221;28;20377;-84
2021/10/12 06:19:57;;;;;;;23.97;12.73;;;8.70;99.90;;;;;;5014438;28;20737;-84
2021/10/12 06:22:23;;;;;;;17.20;11.60;;;8.80;99.90;;;;;;5032209;28;20373;-85
2021/10/12 06:24:48;;;;;;;16.13;10.63;;;8.90;99.90;;;;;;5031569;28;20798;-84
2021/10/12 06:27:14;;;;;;;16.30;11.07;;;9.10;99.90;;;;;;5014801;28;20938;-84
2021/10/12 06:29:40;;;;;;;16.38;11.27;;;9.20;99.90;;;;;;5033276;28;20396;-84
2021/10/12 06:32:05;;;;;;;14.82;10.63;;;9.20;99.90;;;;;;5032482;28;20779;-85
2021/10/12 06:34:31;;;;;;;15.13;11.07;;;9.10;99.90;;;;;;5015372;28;20384;-84
2021/10/12 06:36:57;;;;;;;16.33;11.70;;;9.10;99.90;;;;;;5032644;28;21303;-84
2021/10/12 06:39:22;;;;;;;15.40;10.77;;;9.10;99.90;;;;;;5033240;28;20373;-85
2021/10/12 06:41:48;;;;;;;13.40;10.83;;;9.20;99.90;;;;;;5033281;28;20431;-84
2021/10/12 06:44:14;;;;;;;14.93;10.27;;;9.30;99.90;;;;;;5032981;28;20460;-84
2021/10/12 06:46:40;;;;;;;13.05;9.57;;;9.30;99.90;;;;;;5014308;28;20385;-84
2021/10/12 06:49:05;;;;;;;13.57;9.17;;;9.40;99.90;;;;;;5015212;28;20472;-84
2021/10/12 06:51:31;;;;;;;12.30;9.00;;;9.50;99.90;;;;;;5016490;28;20879;-84
2021/10/12 06:53:57;;;;;;;12.07;8.40;;;9.50;99.90;;;;;;5016216;28;20381;-84
2021/10/12 06:56:22;;;;;;;11.67;8.17;;;9.60;99.90;;;;;;5014253;28;20400;-85
2021/10/12 06:58:48;;;;;;;11.52;7.80;;;9.50;99.90;;;;;;5016437;28;20740;-83
2021/10/12 07:01:13;;;;;;;11.07;7.50;;;9.60;99.90;;;;;;5036187;28;20375;-86
2021/10/12 07:03:39;;;;;;;11.13;6.67;;;9.70;99.90;;;;;;5037184;28;20376;-84
2021/10/12 07:06:04;;;;;;;10.18;6.82;;;9.70;99.90;;;;;;5019068;28;20381;-84
2021/10/12 07:08:30;;;;;;;10.13;6.57;;;9.80;99.90;;;;;;5036024;28;20385;-85
2021/10/12 07:10:56;;;;;;;9.43;6.60;;;9.90;99.90;;;;;;5018989;28;20401;-86
2021/10/12 07:13:28;;;;;;;10.40;6.40;;;9.90;99.90;;;;;;5036928;28;20389;-85
2021/10/12 07:15:57;;;;;;;9.57;6.57;;;9.80;99.90;;;;;;5037253;28;20374;-84
2021/10/12 07:18:26;;;;;;;7.10;5.65;;;9.90;99.90;;;;;;5018506;28;20409;-85
2021/10/12 07:20:52;;;;;;;10.98;5.90;;;10.00;99.90;;;;;;5036499;28;20382;-84
2021/10/12 07:23:17;;;;;;;7.50;4.72;;;10.10;99.90;;;;;;5051393;28;20439;-84
2021/10/12 07:25:48;;;;;;;7.60;4.80;;;10.10;99.90;;;;;;5035752;28;20381;-85
2021/10/12 07:28:14;;;;;;;5.95;4.78;;;10.10;99.90;;;;;;5017878;28;20398;-86
2021/10/12 07:30:40;;;;;;;6.70;4.68;;;10.10;99.90;;;;;;5035801;28;20481;-84
2021/10/12 07:33:06;;;;;;;8.30;4.53;;;10.10;99.90;;;;;;5018291;28;20392;-85
2021/10/12 07:35:32;;;;;;;7.25;4.00;;;10.20;99.90;;;;;;5016236;28;20721;-85
2021/10/12 07:37:58;;;;;;;7.87;4.30;;;10.20;99.90;;;;;;5017324;28;20423;-86
2021/10/12 07:40:24;;;;;;;7.83;4.40;;;10.10;99.90;;;;;;5034858;28;20721;-84
2021/10/12 07:42:50;;;;;;;6.18;4.05;;;10.10;99.90;;;;;;5035243;28;20446;-86
2021/10/12 07:45:15;;;;;;;7.80;4.50;;;10.10;99.90;;;;;;5017148;28;20392;-86
2021/10/12 07:47:41;;;;;;;6.53;3.55;;;10.20;99.90;;;;;;5016288;28;20400;-84
2021/10/12 07:50:07;;;;;;;6.65;4.00;;;10.30;99.90;;;;;;5033680;28;20401;-86
2021/10/12 07:52:33;;;;;;;5.40;3.80;;;10.30;99.90;;;;;;5016661;28;20404;-86
2021/10/12 07:57:31;;;;;;;8.30;3.80;;;10.50;99.90;;;;;;5033603;28;20437;-85
2021/10/12 07:59:56;;;;;;;4.97;3.47;;;10.50;99.90;;;;;;5032894;28;20484;-85
2021/10/12 08:02:23;;;;;;;6.17;3.47;;;10.60;99.90;;;;;;5015265;28;20370;-86
2021/10/12 08:04:49;;;;;;;5.63;3.28;;;10.70;99.90;;;;;;5012722;28;20386;-87
2021/10/12 08:07:15;;;;;;;6.78;3.15;;;10.90;99.90;;;;;;5013454;28;20476;-85
2021/10/12 08:09:41;;;;;;;6.10;2.90;;;11.00;99.90;;;;;;5033427;28;20424;-86
2021/10/12 08:12:07;;;;;;;5.55;2.70;;;10.90;99.90;;;;;;5014940;28;20417;-86
2021/10/12 08:14:39;;;;;;;4.70;2.63;;;10.90;99.90;;;;;;5032135;28;20377;-86
2021/10/12 08:17:04;;;;;;;5.83;2.83;;;10.80;99.90;;;;;;5030905;28;20388;-82
2021/10/12 08:19:30;;;;;;;6.17;2.63;;;10.70;99.90;;;;;;5015501;28;20742;-86
2021/10/12 08:21:56;;;;;;;5.90;3.00;;;10.70;99.90;;;;;;5033184;28;20381;-85
2021/10/12 08:24:22;;;;;;;6.03;2.83;;;10.70;99.90;;;;;;5048075;28;20455;-83
2021/10/12 08:26:49;;;;;;;6.35;2.70;;;10.80;99.90;;;;;;5014552;28;20961;-85
2021/10/12 08:29:15;;;;;;;5.45;2.35;;;10.70;99.90;;;;;;5014779;28;20397;-84
2021/10/12 08:31:40;;;;;;;5.20;2.30;;;10.70;99.90;;;;;;5014050;28;20404;-86
2021/10/12 08:34:06;;;;;;;6.30;2.60;;;10.70;99.90;;;;;;5048014;28;20388;-83
2021/10/12 08:36:32;;;;;;;5.83;2.27;;;10.90;99.90;;;;;;5014598;28;20448;-84
2021/10/12 08:38:57;;;;;;;4.85;2.00;;;11.10;99.90;;;;;;5032477;28;20381;-84
2021/10/12 08:41:43;;;;;;;5.07;2.10;;;11.20;99.90;;;;;;5014801;28;20389;-86
2021/10/12 08:44:10;;;;;;;4.95;2.05;;;11.40;99.90;;;;;;5013103;28;20366;-85
2021/10/12 08:46:37;;;;;;;5.03;1.60;;;11.40;99.90;;;;;;5032317;28;20369;-85
2021/10/12 08:49:02;;;;;;;5.57;2.20;;;11.40;99.90;;;;;;5013848;28;20412;-85
2021/10/12 08:51:37;;;;;;;4.38;1.85;;;11.30;99.90;;;;;;5031545;28;20400;-83
2021/10/12 08:54:02;;;;;;;4.80;1.88;;;11.30;99.90;;;;;;5032026;28;20472;-86
2021/10/12 08:56:31;;;;;;;6.00;2.00;;;11.30;99.90;;;;;;5010449;28;20472;-85
2021/10/12 08:58:57;;;;;;;4.18;1.85;;;11.40;99.90;;;;;;5027004;28;20410;-84
2021/10/12 09:01:27;;;;;;;3.30;1.60;;;11.30;99.90;;;;;;5030905;28;20476;-83
2021/10/12 09:06:33;;;;;;;7.85;2.30;;;11.60;99.90;;;;;;5012672;28;20753;-87
2021/10/12 09:09:14;;;;;;;5.97;2.20;;;11.40;99.90;;;;;;5025888;28;20389;-85
2021/10/12 09:11:40;;;;;;;3.80;1.65;;;11.30;99.90;;;;;;5032233;28;20365;-86
2021/10/12 09:14:11;;;;;;;5.68;2.00;;;11.40;99.90;;;;;;5032294;28;20461;-85
2021/10/12 09:16:40;;;;;;;3.67;1.70;;;11.70;99.90;;;;;;5014388;28;20409;-84
2021/10/12 09:19:31;;;;;;;4.45;1.67;;;11.70;99.90;;;;;;5014042;28;20909;-84
2021/10/12 09:21:58;;;;;;;3.28;1.50;;;12.10;99.90;;;;;;5031511;28;20389;-85
2021/10/12 09:24:24;;;;;;;6.47;1.70;;;12.50;99.90;;;;;;5030441;28;20393;-85
2021/10/12 09:27:18;;;;;;;5.88;1.75;;;12.80;99.90;;;;;;5014175;28;20382;-85
2021/10/12 09:32:11;;;;;;;5.43;1.60;;;12.60;99.90;;;;;;5031089;28;20469;-86
2021/10/12 09:34:38;;;;;;;4.05;1.52;;;12.60;99.90;;;;;;5013939;28;20859;-87
2021/10/12 09:37:06;;;;;;;5.07;1.67;;;12.50;99.90;;;;;;5031948;28;20812;-84
2021/10/12 09:39:42;;;;;;;5.15;1.58;;;12.70;99.90;;;;;;5031351;28;20464;-86
2021/10/12 09:42:16;;;;;;;5.40;1.70;;;13.00;99.90;;;;;;5014346;28;20420;-83
2021/10/12 09:44:58;;;;;;;4.73;1.50;;;13.30;99.90;;;;;;5127981;27;20361;-85
2021/10/12 09:47:24;;;;;;;5.70;1.73;;;13.30;99.90;;;;;;5140556;27;20907;-87
2021/10/12 09:50:08;;;;;;;7.15;1.73;;;13.40;99.90;;;;;;5107312;28;20403;-83
2021/10/12 09:52:47;;;;;;;4.40;1.70;;;13.30;99.90;;;;;;5122778;27;20751;-85
2021/10/12 09:55:13;;;;;;;3.92;1.50;;;13.20;99.90;;;;;;5127062;27;20382;-87
2021/10/12 09:57:42;;;;;;;5.30;1.40;;;13.00;99.90;;;;;;5126990;27;20389;-86
2021/10/12 10:00:09;;;;;;;3.90;1.27;;;12.80;99.90;;;;;;5126282;27;20928;-85
2021/10/12 10:02:37;;;;;;;3.97;1.30;;;12.40;99.90;;;;;;5126516;27;20374;-84
2021/10/12 10:05:04;;;;;;;5.03;1.60;;;12.20;99.90;;;;;;5125394;28;20382;-82
2021/10/12 10:07:33;;;;;;;5.00;1.30;;;12.20;99.90;;;;;;5115110;27;20877;-86
2021/10/12 10:10:05;;;;;;;4.05;1.25;;;12.40;99.90;;;;;;5124466;27;20399;-84
2021/10/12 10:12:34;;;;;;;3.72;1.33;;;12.30;99.90;;;;;;5122580;28;20785;-82
2021/10/12 10:15:05;;;;;;;6.55;1.30;;;12.50;99.90;;;;;;5115630;27;20393;-86
2021/10/12 10:17:40;;;;;;;4.73;1.40;;;12.80;99.90;;;;;;5109746;27;20412;-82
2021/10/12 10:20:10;;;;;;;3.42;1.20;;;13.00;99.90;;;;;;5112156;27;20492;-83
2021/10/12 10:25:26;;;;;;;3.58;1.13;;;13.10;99.90;;;;;;5115363;27;20378;-85
2021/10/12 10:27:52;;;;;;;4.15;1.25;;;13.00;99.90;;;;;;5114527;28;20390;-84
2021/10/12 10:30:26;;;;;;;4.35;1.05;;;13.00;99.90;;;;;;5114640;28;20366;-85
2021/10/12 10:33:04;;;;;;;3.15;1.40;;;12.80;99.90;;;;;;5115103;27;20405;-86
2021/10/12 10:35:45;;;;;;;3.17;1.05;;;12.70;99.90;;;;;;5155607;27;20378;-87
2021/10/12 10:38:20;;;;;;;3.05;1.02;;;12.70;99.90;;;;;;5125631;27;20386;-84
2021/10/12 10:40:51;;;;;;;3.33;1.40;;;12.90;99.90;;;;;;5126954;27;20403;-86
2021/10/12 10:43:16;;;;;;;4.05;1.10;;;13.20;99.90;;;;;;5126271;27;20895;-85
2021/10/12 10:45:48;;;;;;;2.23;1.00;;;13.60;99.90;;;;;;5125508;27;20375;-87
2021/10/12 10:48:16;;;;;;;2.50;1.10;;;14.00;99.90;;;;;;5124861;27;20546;-84
2021/10/12 10:50:42;;;;;;;2.80;1.20;;;13.80;99.90;;;;;;5125490;27;20378;-84
2021/10/12 10:53:10;;;;;;;4.50;1.10;;;13.40;99.90;;;;;;5126461;27;20373;-86
2021/10/12 10:55:41;;;;;;;2.65;0.90;;;13.00;99.90;;;;;;5114521;28;20936;-84
2021/10/12 10:58:20;;;;;;;4.13;1.10;;;12.90;99.90;;;;;;5111301;28;20371;-84
2021/10/12 11:00:50;;;;;;;3.47;1.55;;;12.80;99.90;;;;;;5111044;28;20465;-84
2021/10/12 11:03:25;;;;;;;3.90;1.10;;;12.90;99.90;;;;;;5111188;28;20921;-85
2021/10/12 11:05:55;;;;;;;2.55;1.17;;;13.00;99.90;;;;;;5111701;28;20371;-83
2021/10/12 11:08:24;;;;;;;2.92;1.10;;;13.20;99.90;;;;;;5111746;28;20773;-84
2021/10/12 11:10:59;;;;;;;4.63;1.08;;;13.40;99.90;;;;;;5111390;28;20994;-84
2021/10/12 11:13:35;;;;;;;2.85;1.10;;;13.50;99.90;;;;;;5109230;28;20379;-84
2021/10/12 11:16:02;;;;;;;3.53;1.03;;;13.60;99.90;;;;;;5110962;28;20735;-84
2021/10/12 11:18:28;;;;;;;4.25;1.05;;;13.80;99.90;;;;;;5110849;28;20375;-86
2021/10/12 11:20:57;;;;;;;3.17;1.10;;;13.70;99.90;;;;;;5108976;28;20528;-82
2021/10/12 11:23:33;;;;;;;3.23;0.90;;;13.50;99.90;;;;;;5110166;28;20489;-85
2021/10/12 11:26:04;;;;;;;5.82;1.02;;;13.60;99.90;;;;;;5108993;28;20883;-83
2021/10/12 11:28:32;;;;;;;2.10;1.23;;;13.30;99.90;;;;;;5108559;28;20473;-84
2021/10/12 11:31:01;;;;;;;4.50;1.10;;;12.70;99.90;;;;;;5110083;28;20386;-84
2021/10/12 11:33:43;;;;;;;2.97;1.13;;;12.50;99.90;;;;;;5109336;28;20429;-85
2021/10/12 11:36:12;;;;;;;3.80;1.33;;;12.30;99.90;;;;;;5110569;28;20395;-83
2021/10/12 11:38:53;;;;;;;2.40;1.25;;;12.30;99.90;;;;;;5108116;28;20401;-83
2021/10/12 11:41:24;;;;;;;4.03;1.33;;;12.40;99.90;;;;;;5110362;28;20407;-85
2021/10/12 11:43:56;;;;;;;3.37;1.10;;;12.30;99.90;;;;;;5108560;28;20401;-85
2021/10/12 11:46:33;;;;;;;3.33;1.40;;;12.30;99.90;;;;;;5110881;28;20729;-83
2021/10/12 11:49:13;;;;;;;2.50;1.00;;;12.60;99.90;;;;;;5109536;28;20422;-84
2021/10/12 11:51:40;;;;;;;2.10;0.90;;;12.90;99.90;;;;;;5108545;28;20498;-84
2021/10/12 11:54:07;;;;;;;2.40;1.05;;;12.90;99.90;;;;;;5097311;27;20395;-81
2021/10/12 11:56:35;;;;;;;3.65;1.10;;;13.10;99.90;;;;;;5102574;27;20408;-84
2021/10/12 11:59:03;;;;;;;2.78;1.00;;;13.50;99.90;;;;;;5135185;27;20979;-84
2021/10/12 12:01:34;;;;;;;5.55;0.95;;;13.50;99.90;;;;;;5101160;28;20546;-83
2021/10/12 12:04:01;;;;;;;2.60;0.90;;;13.60;99.90;;;;;;5102057;28;20406;-84
2021/10/12 12:06:30;;;;;;;3.00;1.30;;;13.50;99.90;;;;;;5103750;28;20387;-83
2021/10/12 12:08:58;;;;;;;4.13;1.05;;;13.40;99.90;;;;;;5107630;27;20963;-84
2021/10/12 12:11:26;;;;;;;1.87;1.10;;;13.30;99.90;;;;;;5107338;27;20387;-84
2021/10/12 12:13:54;;;;;;;2.42;1.00;;;13.40;99.90;;;;;;5106554;28;20381;-87
2021/10/12 12:16:21;;;;;;;2.60;1.20;;;13.40;99.90;;;;;;5106229;28;20391;-88
2021/10/12 12:18:48;;;;;;;2.42;1.00;;;13.50;99.90;;;;;;5105091;28;20722;-85
2021/10/12 12:21:24;;;;;;;2.70;1.00;;;13.60;99.90;;;;;;5105804;28;20454;-85
2021/10/12 12:23:55;;;;;;;2.78;1.00;;;13.60;99.90;;;;;;5106631;28;20441;-85
2021/10/12 12:26:24;;;;;;;1.67;0.95;;;13.20;99.90;;;;;;5104610;28;20394;-85
2021/10/12 12:29:22;;;;;;;2.10;1.00;;;12.70;99.90;;;;;;5098176;28;20386;-85
2021/10/12 12:31:55;;;;;;;3.60;1.25;;;12.30;99.90;;;;;;5103819;28;20375;-86
2021/10/12 12:34:41;;;;;;;2.60;1.27;;;12.30;99.90;;;;;;5103423;28;20794;-87
2021/10/12 12:37:10;;;;;;;2.47;1.10;;;12.20;99.90;;;;;;5102443;28;20382;-88
2021/10/12 12:39:41;;;;;;;4.15;1.00;;;12.20;99.90;;;;;;5103888;28;20391;-85
2021/10/12 12:42:27;;;;;;;2.15;0.80;;;12.00;99.90;;;;;;5105143;28;20371;-85
2021/10/12 12:45:22;;;;;;;1.73;0.90;;;11.90;99.90;;;;;;5101948;28;20394;-85
2021/10/12 12:47:57;;;;;;;3.40;0.90;;;11.80;99.90;;;;;;5105000;28;20391;-84
2021/10/12 12:50:34;;;;;;;2.40;1.00;;;11.80;99.90;;;;;;5106303;27;20395;-84
2021/10/12 12:53:02;;;;;;;2.28;1.20;;;12.00;99.90;;;;;;5104272;28;20391;-83
2021/10/12 12:55:38;;;;;;;3.40;1.20;;;12.20;99.90;;;;;;5105576;28;20431;-86
2021/10/12 12:58:05;;;;;;;2.53;1.08;;;12.40;99.90;;;;;;5104681;28;20890;-85
2021/10/12 13:00:31;;;;;;;2.67;1.48;;;12.40;99.90;;;;;;5101672;28;20392;-85
2021/10/12 13:02:58;;;;;;;3.53;1.27;;;12.50;99.90;;;;;;5090954;28;20972;-83